Main page
METAR-TAF:

METAR-TAF

Airports :

Kasane Airport

Kasane, Botswana

latitude: 17-49S, longitude: 025-09E, elevation: 968 m

Current weather observation

The report was made 1 hour and 20 minutes ago, at 15:00 UTC
Wind 5 kt from the North, varying between West/Northwest and North/Northeast
Temperature 30°C
Humidity 52%
Pressure 1012 hPa
Visibility 10 km or more
Scattered clouds at a height of 3000 ft
Few clouds at a height of 3500 ft, Cumulonimbus.
Scattered clouds at a height of 7000 ft

METAR: FBKE 171500Z 35005KT 290V030 9999 SCT030 FEW035CB SCT070 30/19 Q1012

Time: 18:20 (16:20 UTC)

Forecast

The report was made 4 hours and 20 minutes ago, at 12:00 UTC
Forecast valid from 17 at 15 UTC to 17 at 24 UTC
Wind 4 kt from the West
Visibility 10 km or more
Broken clouds at a height of 3000 ft
Few clouds at a height of 4000 ft, Cumulonimbus.
Scattered clouds at a height of 7000 ft
Temporary
from 17 at 15 UTC to 17 at 24 UTC
thunderstorm, rain

TAF: FBKE 171200Z 1715/1724 26004KT 9999 BKN030 FEW040CB SCT070 TEMPO 1715/1724 TSRA

Weather observations and forecasts of more than 4000 airports (METAR and TAF reports).

The available stations are represented by yellow and red dots on the map.

Hover mouse over dot to see the name of the station.

Then click to see weather observations and forecasts.

To change the map : click on the green buttons with a black cross to zoom in, on the green button with a dash to zoom out, or on the green arrows for adjacent maps.


METAR-TAF: